Time;durP1;ratioP1;P1;durP2;ratioP2;P2;SDS_P1;SDS_P2;PMS_P1;PMS_P2;Temp;Humidity;BMP_temperature;BMP_pressure;BME280_temperature;BME280_humidity;BME280_pressure;Samples;Min_cycle;Max_cycle;Signal;HPM_P1;HPM_P2
2021/10/16 00:02:17;;;;;;;24.70;22.70;;;2.60;99.90;;;;;;5094026;28;20449;-69
2021/10/16 00:04:45;;;;;;;24.63;22.60;;;2.60;99.90;;;;;;5093718;28;20532;-68
2021/10/16 00:07:12;;;;;;;24.20;22.40;;;2.60;99.90;;;;;;5098540;28;20487;-70
2021/10/16 00:09:41;;;;;;;26.10;23.80;;;2.60;99.90;;;;;;5095576;28;20515;-70
2021/10/16 00:12:07;;;;;;;25.30;22.70;;;2.60;99.90;;;;;;5096729;28;20827;-67
2021/10/16 00:14:34;;;;;;;24.60;22.70;;;2.50;99.90;;;;;;5101211;28;20523;-69
2021/10/16 00:17:01;;;;;;;24.73;22.97;;;2.60;99.90;;;;;;5093687;28;20453;-70
2021/10/16 00:19:28;;;;;;;24.57;22.53;;;2.60;99.90;;;;;;5098815;28;20814;-70
2021/10/16 00:21:55;;;;;;;24.17;22.40;;;2.60;99.90;;;;;;5087687;28;20457;-71
2021/10/16 00:24:22;;;;;;;24.50;22.80;;;2.50;99.90;;;;;;5090491;28;20522;-69
2021/10/16 00:26:50;;;;;;;24.77;22.80;;;2.60;99.90;;;;;;5100443;28;20454;-68
2021/10/16 00:29:17;;;;;;;25.47;22.80;;;2.60;99.90;;;;;;5100297;28;20499;-70
2021/10/16 00:31:44;;;;;;;25.43;23.53;;;2.50;99.90;;;;;;5081484;28;21025;-67
2021/10/16 00:34:11;;;;;;;25.67;23.37;;;2.50;99.90;;;;;;5096096;28;20465;-71
2021/10/16 00:36:38;;;;;;;25.07;22.97;;;2.50;99.90;;;;;;5094928;28;20475;-69
2021/10/16 00:39:05;;;;;;;23.37;21.77;;;2.50;99.90;;;;;;5094778;28;20848;-70
2021/10/16 00:41:32;;;;;;;24.90;23.17;;;2.50;99.90;;;;;;5097744;28;20472;-70
2021/10/16 00:44:13;;;;;;;24.50;22.60;;;2.40;99.90;;;;;;5094719;28;20810;-71
2021/10/16 00:46:40;;;;;;;25.40;23.20;;;2.50;99.90;;;;;;5094567;28;20466;-72
2021/10/16 00:49:07;;;;;;;25.13;22.63;;;2.50;99.90;;;;;;5094918;28;20520;-69
2021/10/16 00:51:34;;;;;;;26.80;24.57;;;2.40;99.90;;;;;;5090464;28;20488;-72
2021/10/16 00:54:02;;;;;;;25.50;23.60;;;2.40;99.90;;;;;;5093491;28;20967;-71
2021/10/16 00:56:30;;;;;;;25.93;23.60;;;2.40;99.90;;;;;;5087573;28;20458;-71
2021/10/16 00:58:57;;;;;;;26.57;24.37;;;2.40;99.90;;;;;;5091002;28;20460;-71
2021/10/16 01:01:26;;;;;;;25.70;23.67;;;2.40;99.90;;;;;;5084751;28;20454;-71
2021/10/16 01:03:53;;;;;;;24.57;22.73;;;2.30;99.90;;;;;;5100803;28;20453;-69
2021/10/16 01:06:21;;;;;;;25.00;22.90;;;2.30;99.90;;;;;;5089939;28;20471;-70
2021/10/16 01:08:48;;;;;;;24.97;22.77;;;2.30;99.90;;;;;;5084499;28;20480;-72
2021/10/16 01:11:15;;;;;;;26.10;23.40;;;2.20;99.90;;;;;;5081839;28;20458;-69
2021/10/16 01:13:44;;;;;;;25.20;22.80;;;2.20;99.90;;;;;;5090903;28;20461;-71
2021/10/16 01:16:11;;;;;;;23.80;22.10;;;2.20;99.90;;;;;;5093058;28;20455;-70
2021/10/16 01:18:42;;;;;;;23.90;22.20;;;2.10;99.90;;;;;;5101959;28;20521;-66
2021/10/16 01:21:11;;;;;;;23.40;21.80;;;2.10;99.90;;;;;;5093609;28;20504;-67
2021/10/16 01:23:39;;;;;;;23.73;22.03;;;2.10;99.90;;;;;;5092516;28;20496;-69
2021/10/16 01:26:08;;;;;;;24.13;22.40;;;2.10;99.90;;;;;;5092743;28;20873;-70
2021/10/16 01:28:35;;;;;;;24.93;22.73;;;2.10;99.90;;;;;;5075892;28;20482;-69
2021/10/16 01:31:02;;;;;;;24.10;22.13;;;2.10;99.90;;;;;;5090886;28;20467;-68
2021/10/16 01:33:30;;;;;;;24.73;22.70;;;2.10;99.90;;;;;;5097117;28;20478;-69
2021/10/16 01:36:01;;;;;;;24.53;22.30;;;2.10;99.90;;;;;;5097542;28;20813;-72
2021/10/16 01:38:30;;;;;;;24.00;22.10;;;2.00;99.90;;;;;;5096751;28;20464;-72
2021/10/16 01:40:57;;;;;;;24.27;22.47;;;2.00;99.90;;;;;;5105948;28;20453;-71
2021/10/16 01:43:25;;;;;;;23.43;21.73;;;2.00;99.90;;;;;;5099532;28;20460;-71
2021/10/16 01:45:52;;;;;;;24.63;22.83;;;2.00;99.90;;;;;;5096701;28;20830;-70
2021/10/16 01:48:22;;;;;;;26.23;23.80;;;2.00;99.90;;;;;;5094081;28;20967;-71
2021/10/16 01:50:51;;;;;;;24.63;22.63;;;1.90;99.90;;;;;;5088601;28;20459;-70
2021/10/16 01:53:18;;;;;;;27.03;23.90;;;1.90;99.90;;;;;;5088406;28;20516;-72
2021/10/16 01:55:48;;;;;;;25.13;22.50;;;1.90;99.90;;;;;;5101267;28;20826;-70
2021/10/16 01:58:17;;;;;;;24.67;22.83;;;1.90;99.90;;;;;;5093417;28;20543;-70
2021/10/16 02:00:46;;;;;;;25.30;23.27;;;1.90;99.90;;;;;;5094561;28;20475;-71
2021/10/16 02:03:13;;;;;;;25.13;23.20;;;2.00;99.90;;;;;;5104069;28;20504;-70
2021/10/16 02:05:43;;;;;;;26.00;23.87;;;1.90;99.90;;;;;;5103862;28;20488;-72
2021/10/16 02:08:11;;;;;;;25.93;22.83;;;1.90;99.90;;;;;;5099212;28;20815;-70
2021/10/16 02:10:40;;;;;;;25.00;22.90;;;1.80;99.90;;;;;;5099975;28;20563;-70
2021/10/16 02:13:08;;;;;;;24.80;22.90;;;1.90;99.90;;;;;;5099381;28;20458;-70
2021/10/16 02:15:35;;;;;;;25.13;22.93;;;1.80;99.90;;;;;;5098284;28;20460;-70
2021/10/16 02:18:02;;;;;;;27.43;25.00;;;1.80;99.90;;;;;;5094689;28;20855;-71
2021/10/16 02:20:31;;;;;;;24.70;22.57;;;1.70;99.90;;;;;;5105029;28;20467;-69
2021/10/16 02:22:57;;;;;;;24.50;22.73;;;1.70;99.90;;;;;;5095770;28;20484;-71
2021/10/16 02:25:25;;;;;;;24.60;22.30;;;1.80;99.90;;;;;;5097703;28;20465;-69
2021/10/16 02:27:52;;;;;;;23.50;21.90;;;1.80;99.90;;;;;;5094319;28;20464;-68
2021/10/16 02:30:21;;;;;;;23.33;21.73;;;1.80;99.90;;;;;;5089990;28;20810;-68
2021/10/16 02:32:48;;;;;;;25.03;23.00;;;1.80;99.90;;;;;;5092661;28;20472;-67
2021/10/16 02:35:15;;;;;;;24.53;22.57;;;1.80;99.90;;;;;;5103594;28;20471;-72
2021/10/16 02:37:43;;;;;;;24.70;22.47;;;1.70;99.90;;;;;;5097155;28;20460;-68
2021/10/16 02:40:11;;;;;;;26.50;24.00;;;1.70;99.90;;;;;;5096539;28;20476;-69
2021/10/16 02:42:39;;;;;;;24.13;22.27;;;1.60;99.90;;;;;;5097441;28;20823;-68
2021/10/16 02:45:06;;;;;;;25.17;23.30;;;1.60;99.90;;;;;;5084331;28;20814;-70
2021/10/16 02:47:35;;;;;;;24.80;23.00;;;1.70;99.90;;;;;;5087747;28;20468;-69
2021/10/16 02:50:02;;;;;;;24.03;22.00;;;1.80;99.90;;;;;;5097875;28;21001;-68
2021/10/16 02:52:30;;;;;;;24.23;22.33;;;1.80;99.90;;;;;;5094758;28;20476;-71
2021/10/16 02:54:57;;;;;;;25.20;23.00;;;1.70;99.90;;;;;;5090848;28;20453;-67
2021/10/16 02:57:25;;;;;;;23.43;21.90;;;1.60;99.90;;;;;;5098358;28;20906;-71
2021/10/16 02:59:51;;;;;;;24.30;22.70;;;1.50;99.90;;;;;;5086969;28;20476;-67
2021/10/16 03:02:18;;;;;;;24.93;23.20;;;1.50;99.90;;;;;;5089468;28;20468;-69
2021/10/16 03:04:46;;;;;;;24.23;22.60;;;1.50;99.90;;;;;;5097552;28;20473;-69
2021/10/16 03:07:13;;;;;;;24.80;22.90;;;1.40;99.90;;;;;;5097599;28;20808;-69
2021/10/16 03:09:41;;;;;;;24.63;22.83;;;1.40;99.90;;;;;;5091523;28;20855;-66
2021/10/16 03:12:08;;;;;;;24.50;22.87;;;1.40;99.90;;;;;;5091477;28;20454;-69
2021/10/16 03:14:34;;;;;;;27.23;23.80;;;1.40;99.90;;;;;;5089343;28;20483;-69
2021/10/16 03:17:01;;;;;;;25.93;23.80;;;1.40;99.90;;;;;;5099326;28;20460;-70
2021/10/16 03:19:28;;;;;;;25.90;23.67;;;1.40;99.90;;;;;;5097170;28;20470;-72
2021/10/16 03:21:57;;;;;;;25.57;23.67;;;1.40;99.90;;;;;;5096605;28;20455;-69
2021/10/16 03:24:24;;;;;;;33.23;24.57;;;1.50;99.90;;;;;;5093763;28;20953;-67
2021/10/16 03:26:51;;;;;;;24.83;22.80;;;1.50;99.90;;;;;;5096408;28;20461;-66
2021/10/16 03:29:18;;;;;;;24.50;22.37;;;1.40;99.90;;;;;;5096055;28;21432;-68
2021/10/16 03:31:46;;;;;;;24.60;22.90;;;1.30;99.90;;;;;;5089129;28;20465;-68
2021/10/16 03:34:13;;;;;;;24.60;22.80;;;1.30;99.90;;;;;;5090656;28;21420;-68
2021/10/16 03:36:40;;;;;;;25.07;22.93;;;1.20;99.90;;;;;;5098770;28;20469;-67
2021/10/16 03:39:08;;;;;;;25.57;23.13;;;1.20;99.90;;;;;;5095404;28;20546;-67
2021/10/16 03:41:35;;;;;;;23.97;22.27;;;1.20;99.90;;;;;;5094498;28;20464;-68
2021/10/16 03:44:02;;;;;;;25.27;23.27;;;1.20;99.90;;;;;;5096438;28;20538;-67
2021/10/16 03:46:29;;;;;;;24.83;22.80;;;1.10;99.90;;;;;;5094129;28;20496;-68
2021/10/16 03:48:57;;;;;;;24.53;22.60;;;1.10;99.90;;;;;;5097087;28;20567;-66
2021/10/16 03:51:24;;;;;;;24.40;22.60;;;1.20;99.90;;;;;;5092449;28;20567;-70
2021/10/16 03:53:51;;;;;;;24.27;22.57;;;1.20;99.90;;;;;;5098366;28;20462;-66
2021/10/16 03:56:20;;;;;;;25.77;23.53;;;1.20;99.90;;;;;;5100698;28;20469;-69
2021/10/16 03:58:47;;;;;;;24.93;23.00;;;1.20;99.90;;;;;;5094931;28;20491;-67
2021/10/16 04:01:14;;;;;;;24.33;22.63;;;1.20;99.90;;;;;;5092672;28;20460;-67
2021/10/16 04:03:42;;;;;;;25.23;23.40;;;1.20;99.90;;;;;;5074899;28;20457;-67
2021/10/16 04:06:11;;;;;;;25.20;23.13;;;1.10;99.90;;;;;;5089831;28;20955;-68
2021/10/16 04:08:39;;;;;;;23.07;21.47;;;1.20;99.90;;;;;;5099742;28;20460;-67
2021/10/16 04:11:05;;;;;;;24.67;22.77;;;1.20;99.90;;;;;;5099802;28;20492;-66
2021/10/16 04:13:34;;;;;;;24.13;22.50;;;1.20;99.90;;;;;;5096058;28;20461;-67
2021/10/16 04:16:00;;;;;;;26.50;24.17;;;1.20;99.90;;;;;;5092317;28;20472;-69
2021/10/16 04:18:27;;;;;;;24.80;23.00;;;1.20;99.90;;;;;;5095388;28;20449;-67
2021/10/16 04:20:54;;;;;;;24.40;22.60;;;1.20;99.90;;;;;;5097272;28;20465;-69
2021/10/16 04:23:21;;;;;;;24.63;22.70;;;1.10;99.90;;;;;;5099129;28;21028;-69
2021/10/16 04:25:49;;;;;;;24.97;23.10;;;1.10;99.90;;;;;;5099494;28;20475;-69
2021/10/16 04:28:15;;;;;;;24.67;22.10;;;1.00;99.90;;;;;;5087469;28;20458;-68
2021/10/16 04:30:44;;;;;;;24.90;23.10;;;1.00;99.90;;;;;;5084127;28;20512;-67
2021/10/16 04:33:11;;;;;;;25.73;23.40;;;0.90;99.90;;;;;;5086096;28;20468;-67
2021/10/16 04:35:38;;;;;;;25.63;23.33;;;0.90;99.90;;;;;;5098088;28;20852;-68
2021/10/16 04:38:05;;;;;;;25.53;23.33;;;0.80;99.90;;;;;;5099968;28;20496;-68
2021/10/16 04:40:32;;;;;;;25.17;23.13;;;0.80;99.90;;;;;;5098683;28;20469;-66
2021/10/16 04:43:01;;;;;;;25.50;23.30;;;0.80;99.90;;;;;;5090731;28;20464;-68
2021/10/16 04:45:28;;;;;;;24.97;23.10;;;0.90;99.90;;;;;;5092802;28;20468;-67
2021/10/16 04:47:57;;;;;;;25.60;23.40;;;0.90;99.90;;;;;;5095743;28;20465;-68
2021/10/16 04:50:25;;;;;;;26.73;24.00;;;0.90;99.90;;;;;;5097075;28;20495;-67
2021/10/16 04:52:52;;;;;;;23.97;22.33;;;0.80;99.90;;;;;;5098021;28;20492;-67
2021/10/16 04:55:21;;;;;;;24.50;22.60;;;0.90;99.90;;;;;;5100071;28;20464;-69
2021/10/16 04:57:49;;;;;;;24.10;22.40;;;0.90;99.90;;;;;;5091966;28;21006;-69
2021/10/16 05:00:16;;;;;;;25.90;23.57;;;0.90;99.90;;;;;;5096371;28;20543;-69
2021/10/16 05:02:44;;;;;;;24.90;23.10;;;0.90;99.90;;;;;;5094688;28;20938;-68
2021/10/16 05:05:12;;;;;;;25.07;22.70;;;0.90;99.90;;;;;;5095482;28;20814;-67
2021/10/16 05:07:39;;;;;;;25.20;23.30;;;0.90;99.90;;;;;;5100274;28;21064;-66
2021/10/16 05:10:07;;;;;;;26.17;24.27;;;0.90;99.90;;;;;;5102493;28;20484;-68
2021/10/16 05:12:35;;;;;;;26.53;24.10;;;0.90;99.90;;;;;;5094823;28;20965;-66
2021/10/16 05:15:03;;;;;;;25.67;23.63;;;0.90;99.90;;;;;;5096130;28;20478;-69
2021/10/16 05:17:30;;;;;;;27.00;24.50;;;1.00;99.90;;;;;;5093322;28;21275;-70
2021/10/16 05:19:57;;;;;;;26.37;24.30;;;1.00;99.90;;;;;;5094219;28;20961;-70
2021/10/16 05:22:25;;;;;;;26.03;24.00;;;1.10;99.90;;;;;;5098283;28;20495;-67
2021/10/16 05:24:53;;;;;;;26.10;23.83;;;1.10;99.90;;;;;;5099863;28;20525;-68
2021/10/16 05:27:20;;;;;;;27.33;24.67;;;1.00;99.90;;;;;;5100744;28;20538;-68
2021/10/16 05:29:47;;;;;;;28.23;25.87;;;1.00;99.90;;;;;;5091712;28;20492;-67
2021/10/16 05:32:15;;;;;;;27.40;25.20;;;1.00;99.90;;;;;;5094399;28;20468;-67
2021/10/16 05:34:41;;;;;;;29.03;26.17;;;0.90;99.90;;;;;;5081004;28;20473;-69
2021/10/16 05:37:09;;;;;;;27.97;25.20;;;0.90;99.90;;;;;;5088532;28;21313;-69
2021/10/16 05:39:38;;;;;;;26.00;24.20;;;0.90;99.90;;;;;;5099797;28;20551;-69
2021/10/16 05:42:05;;;;;;;25.80;23.60;;;0.90;99.90;;;;;;5094284;28;20835;-68
2021/10/16 05:44:32;;;;;;;26.83;24.37;;;0.80;99.90;;;;;;5095661;28;20461;-67
2021/10/16 05:46:58;;;;;;;27.20;24.90;;;0.70;99.90;;;;;;5097510;28;20954;-68
2021/10/16 05:49:25;;;;;;;27.57;25.17;;;0.70;99.90;;;;;;5090078;28;20467;-69
2021/10/16 05:51:52;;;;;;;29.37;26.70;;;0.80;99.90;;;;;;5094863;28;20494;-70
2021/10/16 05:54:19;;;;;;;29.47;26.50;;;0.90;99.90;;;;;;5100651;28;20479;-68
2021/10/16 05:56:47;;;;;;;28.83;26.23;;;1.00;99.90;;;;;;5098714;28;20456;-68
2021/10/16 05:59:16;;;;;;;27.67;24.67;;;1.00;99.90;;;;;;5095261;28;20465;-68
2021/10/16 06:01:43;;;;;;;26.10;24.20;;;0.90;99.90;;;;;;5094008;28;20524;-67
2021/10/16 06:04:10;;;;;;;27.87;25.20;;;0.80;99.90;;;;;;5087908;28;20541;-69
2021/10/16 06:06:37;;;;;;;29.07;25.40;;;0.70;99.90;;;;;;5088975;28;20511;-68
2021/10/16 06:09:04;;;;;;;27.57;24.80;;;0.70;99.90;;;;;;5081005;28;20514;-68
2021/10/16 06:11:31;;;;;;;27.63;25.10;;;0.70;99.90;;;;;;5080663;28;20489;-68
2021/10/16 06:13:59;;;;;;;27.20;24.87;;;0.60;99.90;;;;;;5080985;28;20469;-70
2021/10/16 06:16:27;;;;;;;28.93;26.43;;;0.70;99.90;;;;;;5089868;28;20954;-68
2021/10/16 06:18:54;;;;;;;28.30;25.90;;;0.80;99.90;;;;;;5086213;28;20474;-69
2021/10/16 06:21:21;;;;;;;29.93;27.47;;;0.80;99.90;;;;;;5093729;28;20965;-69
2021/10/16 06:23:48;;;;;;;36.37;33.20;;;0.90;99.90;;;;;;5091049;28;20485;-67
2021/10/16 06:26:15;;;;;;;32.77;30.23;;;0.90;99.90;;;;;;5086325;28;20484;-70
2021/10/16 06:28:43;;;;;;;31.30;28.60;;;1.00;99.90;;;;;;5087217;28;20459;-66
2021/10/16 06:31:11;;;;;;;30.87;28.17;;;1.10;99.90;;;;;;5088109;28;21010;-69
2021/10/16 06:33:38;;;;;;;30.90;27.97;;;1.20;99.90;;;;;;5087625;28;20974;-66
2021/10/16 06:36:05;;;;;;;32.10;28.60;;;1.20;99.90;;;;;;5088852;28;20464;-69
2021/10/16 06:38:32;;;;;;;30.23;27.73;;;1.20;99.90;;;;;;5094948;28;20464;-69
2021/10/16 06:41:00;;;;;;;30.53;27.37;;;1.20;99.90;;;;;;5092013;28;20468;-69
2021/10/16 06:43:27;;;;;;;30.50;27.63;;;1.20;99.90;;;;;;5081471;28;20453;-66
2021/10/16 06:45:53;;;;;;;28.50;25.80;;;1.30;99.90;;;;;;5080143;28;20465;-69
2021/10/16 06:48:22;;;;;;;28.80;25.93;;;1.30;99.90;;;;;;5100012;28;20461;-67
2021/10/16 06:50:49;;;;;;;29.57;26.40;;;1.40;99.90;;;;;;5099885;28;20583;-68
2021/10/16 06:53:17;;;;;;;30.70;27.83;;;1.40;99.90;;;;;;5098845;28;20850;-67
2021/10/16 06:55:44;;;;;;;30.27;27.10;;;1.50;99.90;;;;;;5101058;28;20454;-69
2021/10/16 06:58:11;;;;;;;32.73;29.20;;;1.60;99.90;;;;;;5105723;28;20543;-67
2021/10/16 07:00:39;;;;;;;28.50;26.10;;;1.70;99.90;;;;;;5095563;28;20465;-66
2021/10/16 07:03:07;;;;;;;28.77;26.37;;;1.80;99.90;;;;;;5097284;28;20477;-67
2021/10/16 07:05:36;;;;;;;26.23;24.30;;;1.90;99.90;;;;;;5098567;28;21124;-68
2021/10/16 07:08:02;;;;;;;26.63;24.23;;;2.00;99.90;;;;;;5092755;28;20467;-67
2021/10/16 07:10:29;;;;;;;27.60;25.43;;;2.10;99.90;;;;;;5090440;28;20491;-67
2021/10/16 07:12:56;;;;;;;27.63;25.33;;;2.20;99.90;;;;;;5088634;28;20974;-67
2021/10/16 07:15:23;;;;;;;29.63;27.10;;;2.30;99.90;;;;;;5092774;28;20457;-68
2021/10/16 07:17:50;;;;;;;32.30;28.60;;;2.40;99.90;;;;;;5097367;28;20801;-69
2021/10/16 07:20:17;;;;;;;28.97;26.27;;;2.50;99.90;;;;;;5097924;28;20461;-66
2021/10/16 07:22:46;;;;;;;28.37;25.90;;;2.60;99.90;;;;;;5103452;28;20481;-70
2021/10/16 07:25:13;;;;;;;30.23;27.30;;;2.60;99.90;;;;;;5097717;28;20930;-68
2021/10/16 07:27:40;;;;;;;29.20;26.30;;;2.80;99.90;;;;;;5095163;28;20823;-69
2021/10/16 07:30:08;;;;;;;31.07;28.30;;;2.90;99.90;;;;;;5088951;28;21058;-67
2021/10/16 07:32:35;;;;;;;28.80;26.40;;;3.20;99.90;;;;;;5099409;28;20460;-69
2021/10/16 07:35:03;;;;;;;32.17;29.20;;;3.30;99.90;;;;;;5098831;28;20462;-67
2021/10/16 07:37:30;;;;;;;33.70;30.60;;;3.40;99.90;;;;;;5101836;28;20468;-67
2021/10/16 07:39:58;;;;;;;38.67;30.83;;;3.50;99.90;;;;;;5103974;28;20461;-67
2021/10/16 07:42:27;;;;;;;32.33;29.13;;;3.70;99.90;;;;;;5091822;28;20974;-69
2021/10/16 07:44:54;;;;;;;31.90;28.40;;;4.00;99.90;;;;;;5094075;28;20458;-67
2021/10/16 07:47:26;;;;;;;32.07;28.60;;;4.10;99.90;;;;;;5091488;28;20469;-67
2021/10/16 07:49:53;;;;;;;49.90;29.20;;;4.10;99.90;;;;;;5100781;28;20473;-68
2021/10/16 07:52:20;;;;;;;47.50;29.23;;;4.30;99.90;;;;;;5087472;28;20494;-70
2021/10/16 07:54:47;;;;;;;58.07;27.90;;;4.40;99.90;;;;;;5094590;28;20826;-68
2021/10/16 07:57:15;;;;;;;58.50;26.87;;;4.60;99.90;;;;;;5098416;28;20535;-69
2021/10/16 07:59:43;;;;;;;44.03;28.93;;;4.80;99.90;;;;;;5087514;28;20465;-70
2021/10/16 08:02:10;;;;;;;35.27;28.07;;;5.00;99.90;;;;;;5078959;28;20454;-70
2021/10/16 08:04:37;;;;;;;46.67;29.30;;;5.10;99.90;;;;;;5088228;28;20473;-67
2021/10/16 08:07:05;;;;;;;58.27;29.43;;;5.20;99.90;;;;;;5090874;28;20462;-68
2021/10/16 08:09:32;;;;;;;41.83;27.07;;;5.40;99.90;;;;;;5097416;28;20458;-68
2021/10/16 08:12:00;;;;;;;30.70;26.77;;;5.50;99.90;;;;;;5093055;28;20494;-70
2021/10/16 08:14:29;;;;;;;56.70;29.27;;;5.70;99.90;;;;;;5092400;28;20462;-67
2021/10/16 08:16:56;;;;;;;38.83;28.60;;;5.80;99.90;;;;;;5089096;28;20464;-67
2021/10/16 08:19:23;;;;;;;40.93;28.33;;;5.90;99.90;;;;;;5092724;28;20466;-68
2021/10/16 08:21:50;;;;;;;41.90;28.67;;;6.00;99.90;;;;;;5090842;28;20474;-67
2021/10/16 08:24:16;;;;;;;42.57;29.53;;;6.10;99.90;;;;;;5091204;28;20489;-67
2021/10/16 08:26:43;;;;;;;58.67;30.90;;;6.20;99.90;;;;;;5096550;28;20447;-70
2021/10/16 08:29:10;;;;;;;35.00;28.30;;;6.40;99.90;;;;;;5098226;28;20503;-68
2021/10/16 08:31:39;;;;;;;39.70;27.00;;;6.50;99.90;;;;;;5084862;28;20628;-68
2021/10/16 08:34:06;;;;;;;49.17;29.50;;;6.60;99.90;;;;;;5086321;28;20457;-70
2021/10/16 08:36:33;;;;;;;40.73;29.13;;;6.70;99.90;;;;;;5086786;28;20463;-68
2021/10/16 08:39:00;;;;;;;41.63;29.00;;;6.80;99.90;;;;;;5093863;28;20455;-68
2021/10/16 08:41:28;;;;;;;45.73;27.37;;;7.00;99.90;;;;;;5092162;28;20458;-69
2021/10/16 08:43:56;;;;;;;37.30;28.67;;;7.10;99.90;;;;;;5091701;28;20993;-68
2021/10/16 08:46:25;;;;;;;44.83;28.80;;;7.20;99.90;;;;;;5089588;28;20458;-67
2021/10/16 08:49:00;;;;;;;52.20;29.20;;;7.30;99.90;;;;;;5093745;28;20462;-68
2021/10/16 08:51:27;;;;;;;38.83;28.00;;;7.40;99.90;;;;;;5087451;28;20509;-68
2021/10/16 08:53:55;;;;;;;47.80;29.00;;;7.60;99.90;;;;;;5090825;28;20923;-68
2021/10/16 08:56:23;;;;;;;36.33;28.97;;;7.70;99.90;;;;;;5091734;28;20456;-68
2021/10/16 08:58:51;;;;;;;41.90;30.03;;;7.70;99.90;;;;;;5088156;28;20468;-70
2021/10/16 09:01:19;;;;;;;42.30;29.20;;;7.90;99.90;;;;;;5083296;28;20476;-68
2021/10/16 09:03:47;;;;;;;72.03;31.67;;;8.00;99.90;;;;;;5095904;28;20456;-68
2021/10/16 09:06:18;;;;;;;43.03;29.00;;;8.10;99.90;;;;;;5089463;28;20467;-68
2021/10/16 09:08:48;;;;;;;45.30;30.17;;;8.20;99.90;;;;;;5088419;28;20972;-68
2021/10/16 09:11:29;;;;;;;44.17;30.53;;;8.30;99.90;;;;;;5094009;28;20488;-70
2021/10/16 09:13:59;;;;;;;38.30;29.60;;;8.40;99.90;;;;;;5091747;28;20455;-67
2021/10/16 09:16:34;;;;;;;39.13;28.80;;;8.50;99.90;;;;;;5088981;28;20837;-69
2021/10/16 09:19:08;;;;;;;54.40;30.23;;;8.60;99.90;;;;;;5091897;28;20465;-70
2021/10/16 09:21:39;;;;;;;34.97;29.10;;;8.70;99.90;;;;;;5097500;28;21019;-70
2021/10/16 09:24:22;;;;;;;41.47;30.30;;;8.80;99.90;;;;;;5095893;28;20484;-68
2021/10/16 09:26:52;;;;;;;47.43;30.47;;;8.90;99.90;;;;;;5089122;28;20976;-68
2021/10/16 09:29:20;;;;;;;42.47;27.90;;;9.10;99.90;;;;;;5080797;28;20467;-67
2021/10/16 09:31:48;;;;;;;49.03;28.40;;;9.10;99.90;;;;;;5092471;28;21529;-70
2021/10/16 09:34:24;;;;;;;56.27;28.40;;;9.20;99.90;;;;;;5094218;28;20970;-68
2021/10/16 09:36:52;;;;;;;43.77;29.47;;;9.30;99.90;;;;;;5089578;28;20466;-69
2021/10/16 09:39:21;;;;;;;32.20;28.73;;;9.40;99.90;;;;;;5092787;28;20577;-68
2021/10/16 09:41:48;;;;;;;42.83;30.30;;;9.60;99.90;;;;;;5095500;28;20663;-71
2021/10/16 09:44:27;;;;;;;52.20;28.90;;;9.70;99.90;;;;;;5097991;28;20460;-68
2021/10/16 09:46:59;;;;;;;51.97;32.57;;;9.80;99.90;;;;;;5088376;28;20471;-68
2021/10/16 09:49:29;;;;;;;44.20;31.17;;;9.90;99.90;;;;;;5092514;28;20453;-68
2021/10/16 09:51:58;;;;;;;40.40;32.10;;;9.90;99.90;;;;;;5094950;28;20554;-71
2021/10/16 09:54:25;;;;;;;40.63;30.03;;;10.10;99.90;;;;;;5097522;28;20834;-70
2021/10/16 09:56:52;;;;;;;52.17;30.00;;;10.20;99.90;;;;;;5096435;28;20461;-71
2021/10/16 09:59:20;;;;;;;49.57;29.20;;;10.30;99.90;;;;;;5090087;28;20472;-68
2021/10/16 10:01:48;;;;;;;46.60;26.93;;;10.80;99.90;;;;;;5091677;28;20991;-67
2021/10/16 10:04:20;;;;;;;39.07;24.80;;;11.30;99.90;;;;;;5105034;28;20946;-68
2021/10/16 10:06:49;;;;;;;40.63;24.13;;;11.90;99.90;;;;;;5099986;28;20502;-69
2021/10/16 10:09:18;;;;;;;33.23;23.30;;;12.90;99.90;;;;;;5095491;28;20469;-69
2021/10/16 10:11:48;;;;;;;41.30;23.97;;;13.80;99.90;;;;;;5095743;28;20551;-68
2021/10/16 10:14:19;;;;;;;28.47;22.63;;;14.60;99.90;;;;;;5088384;28;20493;-68
2021/10/16 10:16:47;;;;;;;41.40;23.03;;;15.20;99.90;;;;;;5088036;28;20470;-69
2021/10/16 10:19:14;;;;;;;24.57;21.93;;;16.00;99.90;;;;;;5097198;28;20519;-69
2021/10/16 10:21:42;;;;;;;25.10;20.70;;;16.80;99.90;;;;;;5101264;28;20467;-68
2021/10/16 10:24:13;;;;;;;38.73;22.17;;;17.30;99.90;;;;;;5099335;28;20503;-68
2021/10/16 10:26:44;;;;;;;30.97;20.90;;;17.80;99.90;;;;;;5104302;28;20472;-71
2021/10/16 10:29:13;;;;;;;31.80;21.30;;;17.60;99.90;;;;;;5089370;28;20449;-69
2021/10/16 10:32:03;;;;;;;43.77;23.20;;;17.30;99.90;;;;;;5096494;28;20588;-68
2021/10/16 10:34:42;;;;;;;37.57;21.30;;;17.40;99.90;;;;;;5087353;28;20461;-68
2021/10/16 10:37:12;;;;;;;31.80;20.87;;;17.70;99.90;;;;;;5095389;28;20457;-69
2021/10/16 10:39:44;;;;;;;28.20;18.70;;;18.70;99.90;;;;;;5099031;28;20461;-68
2021/10/16 10:42:49;;;;;;;21.03;18.83;;;19.40;99.90;;;;;;5093130;28;20465;-68
2021/10/16 10:45:43;;;;;;;28.20;19.30;;;19.30;99.90;;;;;;5092962;28;20452;-68
2021/10/16 10:48:19;;;;;;;25.97;18.70;;;19.00;99.90;;;;;;5090952;28;20970;-68
2021/10/16 10:51:04;;;;;;;24.83;19.00;;;19.20;99.90;;;;;;5087373;28;20453;-68
2021/10/16 10:53:40;;;;;;;21.60;17.77;;;19.50;99.90;;;;;;5097034;28;20801;-68
2021/10/16 10:56:20;;;;;;;21.63;17.30;;;19.90;99.90;;;;;;5092917;28;20812;-69
2021/10/16 10:59:03;;;;;;;22.43;16.00;;;20.00;99.90;;;;;;5098477;28;20454;-68
2021/10/16 11:02:04;;;;;;;22.70;17.47;;;19.70;99.90;;;;;;5097779;28;20535;-72
2021/10/16 11:04:45;;;;;;;23.83;17.00;;;19.80;99.90;;;;;;5091205;28;20808;-69
2021/10/16 11:07:14;;;;;;;19.40;16.57;;;19.50;99.90;;;;;;5098536;28;20897;-68
2021/10/16 11:09:44;;;;;;;18.80;16.60;;;18.90;99.90;;;;;;5094893;28;20951;-69
2021/10/16 11:12:12;;;;;;;20.33;16.10;;;18.90;99.90;;;;;;5098349;28;20888;-68
2021/10/16 11:14:43;;;;;;;24.10;17.30;;;19.10;99.90;;;;;;5097247;28;20460;-68
2021/10/16 11:17:12;;;;;;;17.80;16.13;;;18.70;99.90;;;;;;5087485;28;20547;-70
2021/10/16 11:19:56;;;;;;;17.63;15.90;;;18.80;99.90;;;;;;5101893;28;20543;-69
2021/10/16 11:22:39;;;;;;;24.77;16.43;;;19.50;99.90;;;;;;5101908;28;20567;-69
2021/10/16 11:25:07;;;;;;;23.87;16.90;;;20.20;99.90;;;;;;5091768;28;20976;-69
2021/10/16 11:27:34;;;;;;;21.23;16.10;;;20.20;99.90;;;;;;5091510;28;20454;-69
2021/10/16 11:30:04;;;;;;;24.23;16.47;;;20.30;99.90;;;;;;5094198;28;20450;-69
2021/10/16 11:32:34;;;;;;;20.40;16.57;;;20.50;99.90;;;;;;5086592;28;20481;-71
2021/10/16 11:35:04;;;;;;;18.53;16.80;;;20.60;99.90;;;;;;5101527;28;20466;-70
2021/10/16 11:37:40;;;;;;;20.40;16.67;;;21.40;99.00;;;;;;5096577;28;20508;-69
2021/10/16 11:40:09;;;;;;;18.90;16.20;;;21.40;99.00;;;;;;5092425;28;20486;-69
2021/10/16 11:42:37;;;;;;;18.10;16.20;;;21.60;97.10;;;;;;5092864;28;20462;-69
2021/10/16 11:45:10;;;;;;;17.93;16.10;;;22.10;97.40;;;;;;5093679;28;20457;-72
2021/10/16 11:47:38;;;;;;;17.00;15.30;;;21.70;95.60;;;;;;5090893;28;20814;-68
2021/10/16 11:50:14;;;;;;;17.93;15.70;;;21.00;95.70;;;;;;5094114;28;20515;-68
2021/10/16 11:52:42;;;;;;;18.77;16.77;;;21.20;95.90;;;;;;5096464;28;20496;-71
2021/10/16 11:55:15;;;;;;;17.83;16.27;;;21.40;94.50;;;;;;5093289;28;20470;-71
2021/10/16 11:57:43;;;;;;;17.67;16.00;;;22.20;94.90;;;;;;5091939;28;20446;-71
2021/10/16 12:00:27;;;;;;;17.53;15.97;;;22.30;92.80;;;;;;5090670;28;20458;-68
2021/10/16 12:02:57;;;;;;;19.97;15.00;;;21.10;92.30;;;;;;5090857;28;20859;-68
2021/10/16 12:05:26;;;;;;;28.13;16.33;;;20.50;91.60;;;;;;5091628;28;20469;-69
2021/10/16 12:07:53;;;;;;;15.80;14.70;;;20.80;92.40;;;;;;5096688;28;20457;-68
2021/10/16 12:10:29;;;;;;;16.20;14.67;;;21.40;90.50;;;;;;5094673;28;20849;-68
2021/10/16 12:13:40;;;;;;;17.17;15.50;;;22.10;90.20;;;;;;5098009;28;20767;-72
2021/10/16 12:16:14;;;;;;;18.00;16.57;;;23.10;81.50;;;;;;5074870;28;20548;-69
2021/10/16 12:18:53;;;;;;;18.93;16.83;;;23.10;79.90;;;;;;5083428;28;20462;-68
2021/10/16 12:21:28;;;;;;;20.47;18.30;;;21.20;78.90;;;;;;5086784;28;20463;-68
2021/10/16 12:23:56;;;;;;;17.37;15.90;;;20.50;82.80;;;;;;5094121;28;20476;-68
2021/10/16 12:26:26;;;;;;;19.10;16.20;;;20.30;76.80;;;;;;5089886;28;20465;-69
2021/10/16 12:28:53;;;;;;;18.23;16.33;;;19.40;78.10;;;;;;5093576;28;20506;-69
2021/10/16 12:31:23;;;;;;;18.10;16.50;;;19.30;80.30;;;;;;5077587;28;20473;-68
2021/10/16 12:34:01;;;;;;;22.90;17.10;;;19.00;82.50;;;;;;5078780;28;20539;-71
2021/10/16 12:36:30;;;;;;;16.90;15.40;;;18.40;84.90;;;;;;5080025;28;20936;-70
2021/10/16 12:38:59;;;;;;;17.23;15.70;;;18.10;84.40;;;;;;5087355;28;20458;-71
2021/10/16 12:41:32;;;;;;;18.03;16.13;;;17.20;87.70;;;;;;5085706;28;20458;-70
2021/10/16 12:44:13;;;;;;;16.40;15.30;;;17.10;86.80;;;;;;5087505;28;20551;-69
2021/10/16 12:46:42;;;;;;;16.60;15.27;;;17.70;88.20;;;;;;5086343;28;20830;-69